Terminal Aerodrome Forecast
Issued by NWS Portland, OR

Home | Current Version | Previous Version | Text Only | Print | Product List | Glossary On
Versions: 1 2 3 4 5 6 7 8 9 10 11 12 13 14 15 16 17 18 19 20 21 22 23 24 25 26 27 28 29 30 31 32 33 34 35 36 37 38 39 40
000
FTUS46 KPQR 201253 CCA
TAFSLE
TAF COR
KSLE 201253Z 2012/2112 16017G25KT 6SM -RA BKN035 OVC045
     FM201600 17014G26KT 5SM -RA BR SCT015 BKN025 OVC040
     FM202000 18015G25KT 6SM -RA BR SCT008 BKN015 OVC030=

USA.gov is the U.S. government's official web portal to all federal, state and local government web resources and services.